sensor_id;sensor_type;location;lat;lon;timestamp;pressure;altitude;pressure_sealevel;temperature;humidity
58955;BME280;45815;52.334;5.024;2023-05-10T00:01:02;100890.69;;;13.20;100.00
58955;BME280;45815;52.334;5.024;2023-05-10T00:03:28;100877.47;;;13.15;100.00
58955;BME280;45815;52.334;5.024;2023-05-10T00:05:53;100877.47;;;13.15;100.00
58955;BME280;45815;52.334;5.024;2023-05-10T00:08:18;100880.13;;;13.14;100.00
58955;BME280;45815;52.334;5.024;2023-05-10T00:10:44;100875.72;;;13.11;100.00
58955;BME280;45815;52.334;5.024;2023-05-10T00:13:10;100874.81;;;13.09;100.00
58955;BME280;45815;52.334;5.024;2023-05-10T00:15:35;100874.75;;;13.03;100.00
58955;BME280;45815;52.334;5.024;2023-05-10T00:18:00;100877.41;;;13.04;100.00
58955;BME280;45815;52.334;5.024;2023-05-10T00:20:26;100879.13;;;13.02;100.00
58955;BME280;45815;52.334;5.024;2023-05-10T00:22:51;100878.22;;;13.00;100.00
58955;BME280;45815;52.334;5.024;2023-05-10T00:25:17;100877.31;;;12.97;100.00
58955;BME280;45815;52.334;5.024;2023-05-10T00:27:42;100875.53;;;12.94;100.00
58955;BME280;45815;52.334;5.024;2023-05-10T00:30:08;100884.31;;;12.93;100.00
58955;BME280;45815;52.334;5.024;2023-05-10T00:32:34;100883.38;;;12.89;100.00
58955;BME280;45815;52.334;5.024;2023-05-10T00:34:59;100881.63;;;12.88;100.00
58955;BME280;45815;52.334;5.024;2023-05-10T00:37:25;100885.16;;;12.91;100.00
58955;BME280;45815;52.334;5.024;2023-05-10T00:39:51;100885.16;;;12.91;100.00
58955;BME280;45815;52.334;5.024;2023-05-10T00:42:16;100885.13;;;12.89;100.00
58955;BME280;45815;52.334;5.024;2023-05-10T00:44:42;100871.00;;;12.82;100.00
58955;BME280;45815;52.334;5.024;2023-05-10T00:47:08;100879.03;;;12.90;100.00
58955;BME280;45815;52.334;5.024;2023-05-10T00:49:34;100883.38;;;12.89;100.00
58955;BME280;45815;52.334;5.024;2023-05-10T00:52:00;100886.91;;;12.92;100.00
58955;BME280;45815;52.334;5.024;2023-05-10T00:54:27;100885.19;;;12.94;100.00
58955;BME280;45815;52.334;5.024;2023-05-10T00:56:52;100884.34;;;12.95;100.00
58955;BME280;45815;52.334;5.024;2023-05-10T00:59:18;100892.19;;;12.92;100.00
58955;BME280;45815;52.334;5.024;2023-05-10T01:01:47;100894.81;;;12.88;100.00
58955;BME280;45815;52.334;5.024;2023-05-10T01:04:14;100893.91;;;12.86;100.00
58955;BME280;45815;52.334;5.024;2023-05-10T01:06:40;100882.41;;;12.80;100.00
58955;BME280;45815;52.334;5.024;2023-05-10T01:09:06;100894.72;;;12.82;100.00
58955;BME280;45815;52.334;5.024;2023-05-10T01:11:36;100895.59;;;12.81;100.00
58955;BME280;45815;52.334;5.024;2023-05-10T01:14:02;100892.06;;;12.79;100.00
58955;BME280;45815;52.334;5.024;2023-05-10T01:16:29;100889.41;;;12.76;100.00
58955;BME280;45815;52.334;5.024;2023-05-10T01:18:57;100896.50;;;12.83;100.00
58955;BME280;45815;52.334;5.024;2023-05-10T01:33:24;100899.03;;;12.74;100.00
58955;BME280;45815;52.334;5.024;2023-05-10T01:36:03;100912.19;;;12.76;100.00
58955;BME280;45815;52.334;5.024;2023-05-10T01:38:51;100901.63;;;12.71;100.00
58955;BME280;45815;52.334;5.024;2023-05-10T01:41:28;100899.94;;;12.76;100.00
58955;BME280;45815;52.334;5.024;2023-05-10T01:46:34;100903.47;;;12.78;100.00
58955;BME280;45815;52.334;5.024;2023-05-10T01:49:02;100900.00;;;12.82;100.00
58955;BME280;45815;52.334;5.024;2023-05-10T01:51:37;100892.91;;;12.77;100.00
58955;BME280;45815;52.334;5.024;2023-05-10T01:54:05;100894.72;;;12.82;100.00
58955;BME280;45815;52.334;5.024;2023-05-10T01:56:33;100897.38;;;12.81;100.00
58955;BME280;45815;52.334;5.024;2023-05-10T01:59:01;100899.97;;;12.79;100.00
58955;BME280;45815;52.334;5.024;2023-05-10T02:01:30;100905.25;;;12.79;100.00
58955;BME280;45815;52.334;5.024;2023-05-10T02:03:57;100914.03;;;12.81;100.00
58955;BME280;45815;52.334;5.024;2023-05-10T02:06:24;100901.78;;;12.85;100.00
58955;BME280;45815;52.334;5.024;2023-05-10T02:08:52;100907.91;;;12.84;100.00
58955;BME280;45815;52.334;5.024;2023-05-10T02:11:19;100902.69;;;12.85;100.00
58955;BME280;45815;52.334;5.024;2023-05-10T02:13:48;100898.25;;;12.84;100.00
58955;BME280;45815;52.334;5.024;2023-05-10T02:16:16;100903.50;;;12.83;100.00
58955;BME280;45815;52.334;5.024;2023-05-10T02:18:42;100907.91;;;12.82;100.00
58955;BME280;45815;52.334;5.024;2023-05-10T02:21:08;100918.47;;;12.84;100.00
58955;BME280;45815;52.334;5.024;2023-05-10T02:23:37;100920.19;;;12.82;100.00
58955;BME280;45815;52.334;5.024;2023-05-10T02:26:05;100920.22;;;12.83;100.00
58955;BME280;45815;52.334;5.024;2023-05-10T02:28:32;100925.47;;;12.83;100.00
58955;BME280;45815;52.334;5.024;2023-05-10T02:30:58;100929.03;;;12.85;100.00
58955;BME280;45815;52.334;5.024;2023-05-10T02:33:23;100931.59;;;12.82;100.00
58955;BME280;45815;52.334;5.024;2023-05-10T02:35:51;100936.84;;;12.79;100.00
58955;BME280;45815;52.334;5.024;2023-05-10T02:38:19;100931.56;;;12.76;100.00
58955;BME280;45815;52.334;5.024;2023-05-10T02:40:46;100917.38;;;12.65;100.00
58955;BME280;45815;52.334;5.024;2023-05-10T02:43:12;100934.91;;;12.63;100.00
58955;BME280;45815;52.334;5.024;2023-05-10T02:45:40;100943.69;;;12.65;100.00
58955;BME280;45815;52.334;5.024;2023-05-10T02:48:08;100943.69;;;12.65;100.00
58955;BME280;45815;52.334;5.024;2023-05-10T02:50:35;100941.09;;;12.68;100.00
58955;BME280;45815;52.334;5.024;2023-05-10T02:53:08;100941.06;;;12.66;100.00
58955;BME280;45815;52.334;5.024;2023-05-10T02:55:40;100945.50;;;12.69;100.00
58955;BME280;45815;52.334;5.024;2023-05-10T02:58:06;100942.03;;;12.73;100.00
58955;BME280;45815;52.334;5.024;2023-05-10T03:00:32;100943.75;;;12.71;100.00
58955;BME280;45815;52.334;5.024;2023-05-10T03:02:58;100935.91;;;12.74;100.00
58955;BME280;45815;52.334;5.024;2023-05-10T03:05:24;100938.56;;;12.77;100.00
58955;BME280;45815;52.334;5.024;2023-05-10T03:07:51;100948.25;;;12.78;100.00
58955;BME280;45815;52.334;5.024;2023-05-10T03:10:17;100948.22;;;12.77;100.00
58955;BME280;45815;52.334;5.024;2023-05-10T03:17:55;100935.03;;;12.75;100.00
58955;BME280;45815;52.334;5.024;2023-05-10T03:20:26;100933.31;;;12.77;100.00
58955;BME280;45815;52.334;5.024;2023-05-10T03:23:05;100936.72;;;12.67;100.00
58955;BME280;45815;52.334;5.024;2023-05-10T03:25:33;100932.34;;;12.69;100.00
58955;BME280;45815;52.334;5.024;2023-05-10T03:28:01;100935.91;;;12.74;100.00
58955;BME280;45815;52.334;5.024;2023-05-10T03:30:29;100936.75;;;12.73;100.00
58955;BME280;45815;52.334;5.024;2023-05-10T03:32:55;100942.03;;;12.73;100.00
58955;BME280;45815;52.334;5.024;2023-05-10T03:35:23;100937.66;;;12.75;100.00
58955;BME280;45815;52.334;5.024;2023-05-10T03:37:48;100940.34;;;12.78;100.00
58955;BME280;45815;52.334;5.024;2023-05-10T03:40:14;100945.66;;;12.81;100.00
58955;BME280;45815;52.334;5.024;2023-05-10T03:42:41;100943.00;;;12.81;100.00
58955;BME280;45815;52.334;5.024;2023-05-10T03:45:07;100945.69;;;12.84;100.00
58955;BME280;45815;52.334;5.024;2023-05-10T03:47:33;100943.03;;;12.84;100.00
58955;BME280;45815;52.334;5.024;2023-05-10T03:49:58;100949.22;;;12.86;100.00
58955;BME280;45815;52.334;5.024;2023-05-10T03:52:24;100950.09;;;12.87;100.00
58955;BME280;45815;52.334;5.024;2023-05-10T03:54:49;100954.47;;;12.86;100.00
58955;BME280;45815;52.334;5.024;2023-05-10T03:57:15;100952.72;;;12.85;100.00
58955;BME280;45815;52.334;5.024;2023-05-10T03:59:40;100957.13;;;12.86;100.00
58955;BME280;45815;52.334;5.024;2023-05-10T04:02:05;100956.97;;;12.76;100.00
58955;BME280;45815;52.334;5.024;2023-05-10T04:04:31;100964.91;;;12.77;100.00
58955;BME280;45815;52.334;5.024;2023-05-10T04:06:57;100963.16;;;12.76;100.00
58955;BME280;45815;52.334;5.024;2023-05-10T04:09:22;100956.84;;;12.63;100.00
58955;BME280;45815;52.334;5.024;2023-05-10T04:11:48;100956.81;;;12.60;100.00
58955;BME280;45815;52.334;5.024;2023-05-10T04:14:13;100969.19;;;12.67;100.00
58955;BME280;45815;52.334;5.024;2023-05-10T04:16:39;100962.13;;;12.65;100.00
58955;BME280;45815;52.334;5.024;2023-05-10T04:19:04;100969.22;;;12.71;100.00
58955;BME280;45815;52.334;5.024;2023-05-10T04:21:29;100961.34;;;12.72;100.00
58955;BME280;45815;52.334;5.024;2023-05-10T04:23:55;100967.38;;;12.63;100.00
58955;BME280;45815;52.334;5.024;2023-05-10T04:26:20;100972.63;;;12.62;100.00
58955;BME280;45815;52.334;5.024;2023-05-10T04:28:47;100962.13;;;12.66;100.00
58955;BME280;45815;52.334;5.024;2023-05-10T04:31:12;100973.56;;;12.68;100.00
58955;BME280;45815;52.334;5.024;2023-05-10T04:33:38;100974.44;;;12.64;100.00
58955;BME280;45815;52.334;5.024;2023-05-10T04:36:04;100974.41;;;12.63;100.00
58955;BME280;45815;52.334;5.024;2023-05-10T04:38:30;100965.59;;;12.61;100.00
58955;BME280;45815;52.334;5.024;2023-05-10T04:41:07;100971.72;;;12.61;100.00
58955;BME280;45815;52.334;5.024;2023-05-10T04:43:32;100974.44;;;12.67;100.00
58955;BME280;45815;52.334;5.024;2023-05-10T04:45:58;100975.38;;;12.70;100.00
58955;BME280;45815;52.334;5.024;2023-05-10T04:48:23;100971.84;;;12.69;100.00
58955;BME280;45815;52.334;5.024;2023-05-10T04:50:49;100970.06;;;12.68;100.00
58955;BME280;45815;52.334;5.024;2023-05-10T04:53:14;100970.94;;;12.67;100.00
58955;BME280;45815;52.334;5.024;2023-05-10T04:55:39;100977.06;;;12.66;100.00
58955;BME280;45815;52.334;5.024;2023-05-10T04:58:05;100974.44;;;12.67;100.00
58955;BME280;45815;52.334;5.024;2023-05-10T05:00:30;100973.59;;;12.70;100.00
58955;BME280;45815;52.334;5.024;2023-05-10T05:02:55;100981.53;;;12.73;100.00
58955;BME280;45815;52.334;5.024;2023-05-10T05:05:21;100983.34;;;12.77;100.00
58955;BME280;45815;52.334;5.024;2023-05-10T05:07:46;100982.50;;;12.78;100.00
58955;BME280;45815;52.334;5.024;2023-05-10T05:10:12;100983.38;;;12.79;100.00
58955;BME280;45815;52.334;5.024;2023-05-10T05:12:37;100984.28;;;12.82;100.00
58955;BME280;45815;52.334;5.024;2023-05-10T05:15:03;100989.63;;;12.88;100.00
58955;BME280;45815;52.334;5.024;2023-05-10T05:17:30;100994.94;;;12.92;100.00
58955;BME280;45815;52.334;5.024;2023-05-10T05:19:55;100994.94;;;12.92;100.00
58955;BME280;45815;52.334;5.024;2023-05-10T05:22:21;100996.69;;;12.91;100.00
58955;BME280;45815;52.334;5.024;2023-05-10T05:24:55;101001.09;;;12.94;100.00
58955;BME280;45815;52.334;5.024;2023-05-10T05:27:20;101001.13;;;12.95;100.00
58955;BME280;45815;52.334;5.024;2023-05-10T05:29:52;101002.91;;;12.95;100.00
58955;BME280;45815;52.334;5.024;2023-05-10T05:32:18;101011.66;;;12.94;100.00
58955;BME280;45815;52.334;5.024;2023-05-10T05:34:46;101001.09;;;12.91;100.00
58955;BME280;45815;52.334;5.024;2023-05-10T05:37:13;101009.03;;;12.97;100.00
58955;BME280;45815;52.334;5.024;2023-05-10T05:39:39;101011.69;;;12.95;100.00
58955;BME280;45815;52.334;5.024;2023-05-10T05:42:05;101020.31;;;12.85;100.00
58955;BME280;45815;52.334;5.024;2023-05-10T05:44:30;101021.22;;;12.85;100.00
58955;BME280;45815;52.334;5.024;2023-05-10T05:46:55;101016.78;;;12.83;100.00
58955;BME280;45815;52.334;5.024;2023-05-10T05:49:21;101030.13;;;12.97;100.00
58955;BME280;45815;52.334;5.024;2023-05-10T05:51:46;101034.59;;;13.04;100.00
58955;BME280;45815;52.334;5.024;2023-05-10T05:54:14;101032.91;;;13.07;100.00
58955;BME280;45815;52.334;5.024;2023-05-10T05:56:39;101032.03;;;13.10;100.00
58955;BME280;45815;52.334;5.024;2023-05-10T05:59:05;101035.63;;;13.15;100.00
58955;BME280;45815;52.334;5.024;2023-05-10T06:01:30;101011.84;;;13.10;100.00
58955;BME280;45815;52.334;5.024;2023-05-10T06:03:55;101028.72;;;13.26;100.00
58955;BME280;45815;52.334;5.024;2023-05-10T06:06:21;101027.00;;;13.28;100.00
58955;BME280;45815;52.334;5.024;2023-05-10T06:08:46;101026.97;;;13.25;100.00
58955;BME280;45815;52.334;5.024;2023-05-10T06:11:13;101028.72;;;13.26;100.00
58955;BME280;45815;52.334;5.024;2023-05-10T06:13:38;101030.56;;;13.32;100.00
58955;BME280;45815;52.334;5.024;2023-05-10T06:16:04;101033.25;;;13.35;100.00
58955;BME280;45815;52.334;5.024;2023-05-10T06:18:29;101031.41;;;13.29;100.00
58955;BME280;45815;52.334;5.024;2023-05-10T06:20:55;101024.41;;;13.32;100.00
58955;BME280;45815;52.334;5.024;2023-05-10T06:23:21;101035.72;;;13.24;100.00
58955;BME280;45815;52.334;5.024;2023-05-10T06:25:47;101040.22;;;13.30;100.00
58955;BME280;45815;52.334;5.024;2023-05-10T06:28:12;101028.72;;;13.26;100.00
58955;BME280;45815;52.334;5.024;2023-05-10T06:30:38;101040.28;;;13.35;100.00
58955;BME280;45815;52.334;5.024;2023-05-10T06:33:03;101043.81;;;13.38;100.00
58955;BME280;45815;52.334;5.024;2023-05-10T06:35:29;101039.38;;;13.33;100.00
58955;BME280;45815;52.334;5.024;2023-05-10T06:37:54;101041.06;;;13.27;100.00
58955;BME280;45815;52.334;5.024;2023-05-10T06:40:20;101045.47;;;13.28;100.00
58955;BME280;45815;52.334;5.024;2023-05-10T06:42:46;101045.41;;;13.27;100.00
58955;BME280;45815;52.334;5.024;2023-05-10T06:45:13;101048.94;;;13.26;100.00
58955;BME280;45815;52.334;5.024;2023-05-10T06:47:39;101055.91;;;13.22;100.00
58955;BME280;45815;52.334;5.024;2023-05-10T06:50:06;101052.34;;;13.20;100.00
58955;BME280;45815;52.334;5.024;2023-05-10T06:52:32;101048.81;;;13.17;100.00
58955;BME280;45815;52.334;5.024;2023-05-10T06:54:57;101049.78;;;13.23;100.00
58955;BME280;45815;52.334;5.024;2023-05-10T06:57:23;101052.41;;;13.25;100.00
58955;BME280;45815;52.334;5.024;2023-05-10T06:59:49;101058.53;;;13.22;100.00
58955;BME280;45815;52.334;5.024;2023-05-10T07:02:15;101055.06;;;13.23;100.00
58955;BME280;45815;52.334;5.024;2023-05-10T07:04:40;101057.78;;;13.29;100.00
58955;BME280;45815;52.334;5.024;2023-05-10T07:07:05;101062.16;;;13.27;100.00
58955;BME280;45815;52.334;5.024;2023-05-10T07:09:31;101063.81;;;13.22;100.00
58955;BME280;45815;52.334;5.024;2023-05-10T07:11:56;101065.63;;;13.26;100.00
58955;BME280;45815;52.334;5.024;2023-05-10T07:14:22;101071.00;;;13.33;100.00
58955;BME280;45815;52.334;5.024;2023-05-10T07:16:48;101071.94;;;13.38;100.00
58955;BME280;45815;52.334;5.024;2023-05-10T07:19:14;101073.81;;;13.46;100.00
58955;BME280;45815;52.334;5.024;2023-05-10T07:21:39;101071.13;;;13.45;100.00
58955;BME280;45815;52.334;5.024;2023-05-10T07:24:07;101064.13;;;13.47;100.00
58955;BME280;45815;52.334;5.024;2023-05-10T07:26:33;101072.25;;;13.65;100.00
58955;BME280;45815;52.334;5.024;2023-05-10T07:28:58;101070.56;;;13.75;100.00
58955;BME280;45815;52.334;5.024;2023-05-10T07:31:24;101075.06;;;13.84;100.00
58955;BME280;45815;52.334;5.024;2023-05-10T07:33:49;101071.59;;;13.92;100.00
58955;BME280;45815;52.334;5.024;2023-05-10T07:36:14;101076.91;;;13.97;100.00
58955;BME280;45815;52.334;5.024;2023-05-10T07:38:40;101072.50;;;13.98;100.00
58955;BME280;45815;52.334;5.024;2023-05-10T07:41:05;101077.84;;;14.02;100.00
58955;BME280;45815;52.334;5.024;2023-05-10T07:43:31;101083.19;;;14.08;100.00
58955;BME280;45815;52.334;5.024;2023-05-10T07:45:56;101084.94;;;14.08;100.00
58955;BME280;45815;52.334;5.024;2023-05-10T07:48:22;101090.19;;;14.06;100.00
58955;BME280;45815;52.334;5.024;2023-05-10T07:50:48;101082.28;;;14.06;100.00
58955;BME280;45815;52.334;5.024;2023-05-10T07:53:13;101088.47;;;14.11;100.00
58955;BME280;45815;52.334;5.024;2023-05-10T07:55:39;101087.66;;;14.19;100.00
58955;BME280;45815;52.334;5.024;2023-05-10T07:58:04;101093.00;;;14.25;100.00
58955;BME280;45815;52.334;5.024;2023-05-10T08:00:29;101093.00;;;14.25;100.00
58955;BME280;45815;52.334;5.024;2023-05-10T08:02:55;101096.47;;;14.18;100.00
58955;BME280;45815;52.334;5.024;2023-05-10T08:05:20;101091.19;;;14.18;100.00
58955;BME280;45815;52.334;5.024;2023-05-10T08:07:45;101088.56;;;14.22;100.00
58955;BME280;45815;52.334;5.024;2023-05-10T08:10:11;101092.97;;;14.22;100.00
58955;BME280;45815;52.334;5.024;2023-05-10T08:12:37;101091.25;;;14.24;100.00
58955;BME280;45815;52.334;5.024;2023-05-10T08:15:03;101100.06;;;14.30;100.00
58955;BME280;45815;52.334;5.024;2023-05-10T08:17:29;101088.72;;;14.38;100.00
58955;BME280;45815;52.334;5.024;2023-05-10T08:19:54;101093.19;;;14.49;100.00
58955;BME280;45815;52.334;5.024;2023-05-10T08:22:20;101102.97;;;14.63;100.00
58955;BME280;45815;52.334;5.024;2023-05-10T08:24:45;101101.31;;;14.75;100.00
58955;BME280;45815;52.334;5.024;2023-05-10T08:27:10;101099.63;;;14.87;100.00
58955;BME280;45815;52.334;5.024;2023-05-10T08:29:37;101092.59;;;14.98;100.00
58955;BME280;45815;52.334;5.024;2023-05-10T08:32:03;101105.03;;;15.08;100.00
58955;BME280;45815;52.334;5.024;2023-05-10T08:34:28;101111.19;;;15.12;100.00
58955;BME280;45815;52.334;5.024;2023-05-10T08:36:54;101103.25;;;15.12;100.00
58955;BME280;45815;52.334;5.024;2023-05-10T08:39:19;101107.72;;;15.22;100.00
58955;BME280;45815;52.334;5.024;2023-05-10T08:41:46;101110.41;;;15.31;100.00
58955;BME280;45815;52.334;5.024;2023-05-10T08:44:13;101112.19;;;15.37;100.00
58955;BME280;45815;52.334;5.024;2023-05-10T08:46:40;101111.31;;;15.36;100.00
58955;BME280;45815;52.334;5.024;2023-05-10T08:49:10;101115.72;;;15.39;100.00
58955;BME280;45815;52.334;5.024;2023-05-10T08:51:40;101122.75;;;15.40;100.00
58955;BME280;45815;52.334;5.024;2023-05-10T08:54:09;101118.38;;;15.47;100.00
58955;BME280;45815;52.334;5.024;2023-05-10T08:56:34;101129.88;;;15.58;100.00
58955;BME280;45815;52.334;5.024;2023-05-10T08:59:01;101124.59;;;15.58;100.00
58955;BME280;45815;52.334;5.024;2023-05-10T09:01:26;101125.47;;;15.48;100.00
58955;BME280;45815;52.334;5.024;2023-05-10T09:03:53;101121.91;;;15.46;100.00
58955;BME280;45815;52.334;5.024;2023-05-10T09:06:18;101121.91;;;15.47;100.00
58955;BME280;45815;52.334;5.024;2023-05-10T09:08:44;101111.31;;;15.43;100.00
58955;BME280;45815;52.334;5.024;2023-05-10T09:11:11;101133.41;;;15.52;100.00
58955;BME280;45815;52.334;5.024;2023-05-10T09:13:37;101132.53;;;15.53;100.00
58955;BME280;45815;52.334;5.024;2023-05-10T09:16:03;101129.88;;;15.55;100.00
58955;BME280;45815;52.334;5.024;2023-05-10T09:18:29;101126.34;;;15.59;100.00
58955;BME280;45815;52.334;5.024;2023-05-10T09:20:55;101130.78;;;15.66;100.00
58955;BME280;45815;52.334;5.024;2023-05-10T09:23:20;101136.16;;;15.85;100.00
58955;BME280;45815;52.334;5.024;2023-05-10T09:25:46;101137.06;;;15.99;100.00
58955;BME280;45815;52.334;5.024;2023-05-10T09:28:12;101146.81;;;16.06;100.00
58955;BME280;45815;52.334;5.024;2023-05-10T09:30:37;101142.41;;;16.20;100.00
58955;BME280;45815;52.334;5.024;2023-05-10T09:33:03;101141.50;;;16.34;100.00
58955;BME280;45815;52.334;5.024;2023-05-10T09:35:31;101144.16;;;16.48;100.00
58955;BME280;45815;52.334;5.024;2023-05-10T09:37:59;101149.44;;;16.57;100.00
58955;BME280;45815;52.334;5.024;2023-05-10T09:40:26;101154.75;;;16.75;100.00
58955;BME280;45815;52.334;5.024;2023-05-10T09:42:57;101145.00;;;17.00;100.00
58955;BME280;45815;52.334;5.024;2023-05-10T09:45:27;101155.56;;;17.11;100.00
58955;BME280;45815;52.334;5.024;2023-05-10T09:47:54;101144.09;;;17.11;100.00
58955;BME280;45815;52.334;5.024;2023-05-10T09:50:20;101150.25;;;17.19;100.00
58955;BME280;45815;52.334;5.024;2023-05-10T09:55:11;101151.03;;;17.45;100.00
58955;BME280;45815;52.334;5.024;2023-05-10T09:57:37;101151.06;;;17.38;100.00
58955;BME280;45815;52.334;5.024;2023-05-10T10:00:03;101148.41;;;17.36;100.00
58955;BME280;45815;52.334;5.024;2023-05-10T10:02:39;101149.28;;;17.37;100.00
58955;BME280;45815;52.334;5.024;2023-05-10T10:05:06;101145.78;;;17.38;100.00
58955;BME280;45815;52.334;5.024;2023-05-10T10:07:32;101143.13;;;17.36;100.00
58955;BME280;45815;52.334;5.024;2023-05-10T10:09:58;101142.28;;;17.22;100.00
58955;BME280;45815;52.334;5.024;2023-05-10T10:12:25;101152.06;;;17.07;100.00
58955;BME280;45815;52.334;5.024;2023-05-10T10:14:50;101159.13;;;17.08;100.00
58955;BME280;45815;52.334;5.024;2023-05-10T10:17:17;101157.38;;;17.04;100.00
58955;BME280;45815;52.334;5.024;2023-05-10T10:19:43;101161.78;;;17.01;100.00
58955;BME280;45815;52.334;5.024;2023-05-10T10:22:09;101154.72;;;17.01;100.00
58955;BME280;45815;52.334;5.024;2023-05-10T10:24:38;101160.91;;;16.97;100.00
58955;BME280;45815;52.334;5.024;2023-05-10T10:30:42;101150.34;;;16.88;100.00
58955;BME280;45815;52.334;5.024;2023-05-10T10:33:29;101164.44;;;16.99;100.00
58955;BME280;45815;52.334;5.024;2023-05-10T10:36:00;101156.47;;;17.08;100.00
58955;BME280;45815;52.334;5.024;2023-05-10T10:38:36;101161.72;;;17.25;100.00
58955;BME280;45815;52.334;5.024;2023-05-10T10:41:09;101155.50;;;17.34;100.00
58955;BME280;45815;52.334;5.024;2023-05-10T10:43:35;101162.50;;;17.50;100.00
58955;BME280;45815;52.334;5.024;2023-05-10T10:46:15;101160.72;;;17.52;100.00
58955;BME280;45815;52.334;5.024;2023-05-10T10:48:47;101160.78;;;17.40;100.00
58955;BME280;45815;52.334;5.024;2023-05-10T10:51:14;101163.44;;;17.39;100.00
58955;BME280;45815;52.334;5.024;2023-05-10T10:53:40;101167.84;;;17.41;100.00
58955;BME280;45815;52.334;5.024;2023-05-10T10:56:12;101166.16;;;17.22;100.00
58955;BME280;45815;52.334;5.024;2023-05-10T10:58:40;101173.25;;;17.11;100.00
58955;BME280;45815;52.334;5.024;2023-05-10T11:01:11;101172.41;;;17.05;100.00
58955;BME280;45815;52.334;5.024;2023-05-10T11:03:37;101174.16;;;17.05;100.00
58955;BME280;45815;52.334;5.024;2023-05-10T11:06:03;101175.94;;;17.01;100.00
58955;BME280;45815;52.334;5.024;2023-05-10T11:08:30;101162.69;;;17.04;100.00
58955;BME280;45815;52.334;5.024;2023-05-10T11:13:44;101180.28;;;17.25;100.00
58955;BME280;45815;52.334;5.024;2023-05-10T11:16:20;101174.09;;;17.37;100.00
58955;BME280;45815;52.334;5.024;2023-05-10T11:19:04;101178.47;;;17.37;100.00
58955;BME280;45815;52.334;5.024;2023-05-10T11:21:30;101174.94;;;17.39;100.00
58955;BME280;45815;52.334;5.024;2023-05-10T11:23:57;101183.78;;;17.41;100.00
58955;BME280;45815;52.334;5.024;2023-05-10T11:26:24;101182.91;;;17.41;100.00
58955;BME280;45815;52.334;5.024;2023-05-10T11:28:52;101185.56;;;17.38;100.00
58955;BME280;45815;52.334;5.024;2023-05-10T11:31:20;101190.03;;;17.33;100.00
58955;BME280;45815;52.334;5.024;2023-05-10T11:33:48;101176.75;;;17.28;100.00
58955;BME280;45815;52.334;5.024;2023-05-10T11:36:15;101194.41;;;17.38;100.00
58955;BME280;45815;52.334;5.024;2023-05-10T11:38:40;101193.53;;;17.36;100.00
58955;BME280;45815;52.334;5.024;2023-05-10T11:41:08;101197.09;;;17.30;100.00
58955;BME280;45815;52.334;5.024;2023-05-10T11:43:34;101194.44;;;17.23;100.00
58955;BME280;45815;52.334;5.024;2023-05-10T11:46:01;101198.00;;;17.22;100.00
58955;BME280;45815;52.334;5.024;2023-05-10T11:48:29;101202.38;;;17.32;100.00
58955;BME280;45815;52.334;5.024;2023-05-10T11:50:55;101198.88;;;17.24;100.00
58955;BME280;45815;52.334;5.024;2023-05-10T11:53:22;101204.16;;;17.25;100.00
58955;BME280;45815;52.334;5.024;2023-05-10T11:55:47;101203.28;;;17.25;100.00
58955;BME280;45815;52.334;5.024;2023-05-10T11:58:13;101201.50;;;17.32;100.00
58955;BME280;45815;52.334;5.024;2023-05-10T12:00:38;101204.16;;;17.33;100.00
58955;BME280;45815;52.334;5.024;2023-05-10T12:03:04;101199.72;;;17.35;100.00
58955;BME280;45815;52.334;5.024;2023-05-10T12:05:32;101208.50;;;17.46;100.00
58955;BME280;45815;52.334;5.024;2023-05-10T12:08:15;101208.50;;;17.46;100.00
58955;BME280;45815;52.334;5.024;2023-05-10T12:10:41;101208.47;;;17.56;100.00
58955;BME280;45815;52.334;5.024;2023-05-10T12:13:11;101205.84;;;17.59;100.00
58955;BME280;45815;52.334;5.024;2023-05-10T12:15:37;101208.47;;;17.56;100.00
58955;BME280;45815;52.334;5.024;2023-05-10T12:18:02;101218.22;;;17.55;100.00
58955;BME280;45815;52.334;5.024;2023-05-10T12:20:28;101215.59;;;17.54;100.00
58955;BME280;45815;52.334;5.024;2023-05-10T12:22:56;101220.91;;;17.52;100.00
58955;BME280;45815;52.334;5.024;2023-05-10T12:25:23;101218.25;;;17.46;100.00
58955;BME280;45815;52.334;5.024;2023-05-10T12:27:57;101214.75;;;17.32;100.00
58955;BME280;45815;52.334;5.024;2023-05-10T12:30:27;101220.97;;;17.29;100.00
58955;BME280;45815;52.334;5.024;2023-05-10T12:32:53;101220.97;;;17.23;100.00
58955;BME280;45815;52.334;5.024;2023-05-10T12:35:19;101222.75;;;17.28;100.00
58955;BME280;45815;52.334;5.024;2023-05-10T12:37:50;101213.00;;;17.23;100.00
58955;BME280;45815;52.334;5.024;2023-05-10T12:40:16;101214.81;;;17.16;100.00
58955;BME280;45815;52.334;5.024;2023-05-10T12:42:42;101215.69;;;17.26;100.00
58955;BME280;45815;52.334;5.024;2023-05-10T12:45:08;101215.63;;;17.37;100.00
58955;BME280;45815;52.334;5.024;2023-05-10T12:47:34;101215.63;;;17.32;100.00
58955;BME280;45815;52.334;5.024;2023-05-10T12:50:01;101216.56;;;17.33;100.00
58955;BME280;45815;52.334;5.024;2023-05-10T12:52:28;101205.00;;;17.41;100.00
58955;BME280;45815;52.334;5.024;2023-05-10T12:54:53;101214.59;;;17.75;100.00
58955;BME280;45815;52.334;5.024;2023-05-10T12:57:22;101209.19;;;18.04;100.00
58955;BME280;45815;52.334;5.024;2023-05-10T12:59:47;101214.25;;;18.41;100.00
58955;BME280;45815;52.334;5.024;2023-05-10T13:02:13;101219.38;;;18.67;100.00
58955;BME280;45815;52.334;5.024;2023-05-10T13:04:40;101218.28;;;18.91;100.00
58955;BME280;45815;52.334;5.024;2023-05-10T13:07:06;101205.66;;;19.14;100.00